Cairns, Queensland

1:26 PM EST on September 02, 2014 (GMT +1000)
Cairns International | Change Station
CLOSE
Current Station
Airport
Location: Cairns,
Elevation: 10 ft
Nearby Weather Stations

Elev 10 ft 16.87 °S, 145.75 °E | Updated 26 minutes ago

Clear
Clear
79 °F
Feels Like 79 °F
N
14
Wind Variable Wind from NE

Today
High -- | Low -- °F
--% Chance of Precip.
Yesterday
High -- | Low -- °F
Precip. -- in
6:23 AM 6:10 PM
Waxing Crescent, 47% visible
Pressure 29.98 in
Visibility -9999.0 miles
Clouds
Dew Point 57 °F
Humidity 47%
Rainfall 0.00 in
Snow Depth Not available.
UV Not available.
Pollen Not available.
Air Quality Not available.
Flu Activity Not available.
METAR YBCS 020300Z 05012KT CAVOK 26/14 Q1015 NOSIG

More Conditions Fewer Conditions

Pressure 29.98 in
Visibility -9999.0 miles
Clouds
Dew Point 57 °F
Humidity 47%
Rainfall 0.00 in
Snow Depth Not available.
UV Not available.
Pollen Not available.
Air Quality Not available.
Flu Activity Not available.
METAR YBCS 020300Z 05012KT CAVOK 26/14 Q1015 NOSIG

More Conditions Fewer Conditions

10-Day Weather Forecast

Almanac

Astronomy

Sep. 02, 2014 Rise Set
Actual Time 6:23 AM EST 6:10 PM EST
Civil Twilight 6:01 AM EST 6:32 PM EST
Nautical Twilight 5:36 AM EST 6:57 PM EST
Astronomical Twilight 5:11 AM EST 7:22 PM EST
Moon 11:24 AM EST No Moon Set
Length of Visible Light 12h 30m
Length of Day
11h 47m
Tomorrow will be 0m 53s longer.
Waxing Crescent, 47% of the Moon is Illuminated
Sep 1
Waxing Crescent
Sep 2
First Quarter
Sep 8
Full
Sep 15
Last Quarter
Sep 24
New

Yesterday's Extremes

Country Highs Country Lows

Community

WunderPhotos

Upload Photos

1,749,546 photos uploaded!

WunderBlogs® & News

Nearby

Snow Depth

Not available.

Earthquake Activity

City Distance Mag. Time & Date
No recent earthquake activity has been reported nearby.
Minimum magnitude displayed is 2.5.

Coastal Water Temperatures

Place Temperature
No Stations Reporting

Nearby Weather Stations